createdAt,value
2017-09-29T00:00:07.926Z,20.73
2017-09-29T00:02:33.889Z,20.37
2017-09-29T00:05:00.650Z,20.17
2017-09-29T00:07:27.414Z,18.60
2017-09-29T00:09:53.647Z,20.00
2017-09-29T00:12:20.099Z,20.90
2017-09-29T00:14:46.551Z,19.77
2017-09-29T00:17:15.926Z,18.97
2017-09-29T00:19:48.383Z,19.20
2017-09-29T00:22:27.175Z,19.50
2017-09-29T00:24:57.653Z,19.37
2017-09-29T00:27:28.083Z,18.43
2017-09-29T00:30:06.769Z,18.77
2017-09-29T00:32:32.804Z,19.90
2017-09-29T00:35:12.468Z,19.23
2017-09-29T00:37:46.051Z,18.60
2017-09-29T00:40:16.591Z,18.23
2017-09-29T00:42:51.205Z,19.70
2017-09-29T00:45:24.834Z,19.17
2017-09-29T00:47:53.698Z,17.97
2017-09-29T00:50:19.663Z,18.93
2017-09-29T00:52:45.720Z,16.63
2017-09-29T00:55:15.081Z,18.47
2017-09-29T00:57:41.804Z,17.60
2017-09-29T01:00:30.125Z,18.03
2017-09-29T01:02:59.878Z,16.83
2017-09-29T01:05:37.414Z,18.90
2017-09-29T01:08:10.009Z,19.10
2017-09-29T01:10:36.078Z,18.40
2017-09-29T01:13:05.877Z,19.40
2017-09-29T01:15:35.386Z,19.00
2017-09-29T01:18:01.342Z,19.07
2017-09-29T01:20:28.030Z,22.77
2017-09-29T01:22:56.096Z,19.10
2017-09-29T01:25:37.474Z,20.63
2017-09-29T01:28:19.085Z,20.90
2017-09-29T01:30:45.157Z,20.20
2017-09-29T01:33:24.206Z,20.03
2017-09-29T01:36:00.761Z,19.73
2017-09-29T01:38:31.123Z,20.97
2017-09-29T01:40:57.083Z,19.67
2017-09-29T01:43:23.018Z,18.23
2017-09-29T01:45:49.715Z,19.67
2017-09-29T01:48:15.731Z,17.77
2017-09-29T01:50:41.685Z,17.77
2017-09-29T01:53:07.641Z,19.03
2017-09-29T01:55:33.577Z,19.40
2017-09-29T01:58:00.322Z,19.30
2017-09-29T02:00:27.038Z,19.30
2017-09-29T02:02:53.038Z,17.23
2017-09-29T02:05:19.014Z,18.60
2017-09-29T02:07:45.006Z,18.63
2017-09-29T02:10:10.953Z,18.23
2017-09-29T02:12:36.891Z,17.17
2017-09-29T02:15:02.836Z,19.07
2017-09-29T02:17:30.545Z,19.33
2017-09-29T02:19:56.496Z,19.57
2017-09-29T02:22:22.437Z,19.93
2017-09-29T02:24:48.434Z,19.50
2017-09-29T02:27:14.400Z,19.00
2017-09-29T02:29:40.358Z,18.13
2017-09-29T02:32:07.047Z,19.30
2017-09-29T02:34:33.064Z,17.63
2017-09-29T02:36:59.019Z,19.80
2017-09-29T02:39:25.030Z,19.63
2017-09-29T02:41:51.006Z,20.70
2017-09-29T02:44:17.730Z,21.60
2017-09-29T02:46:43.686Z,21.40
2017-09-29T02:49:10.395Z,19.20
2017-09-29T02:51:36.394Z,19.80
2017-09-29T02:54:02.335Z,18.90
2017-09-29T02:56:30.382Z,20.13
2017-09-29T02:58:59.105Z,17.73
2017-09-29T03:01:27.629Z,19.00
2017-09-29T03:03:59.790Z,17.87
2017-09-29T03:06:25.725Z,19.00
2017-09-29T03:08:56.296Z,18.93
2017-09-29T03:11:22.251Z,20.30
2017-09-29T03:13:48.186Z,22.60
2017-09-29T03:16:14.141Z,22.93
2017-09-29T03:18:40.099Z,23.47
2017-09-29T03:21:06.094Z,21.37
2017-09-29T03:23:32.021Z,23.33
2017-09-29T03:25:58.736Z,21.47
2017-09-29T03:28:24.684Z,20.50
2017-09-29T03:30:50.611Z,21.70
2017-09-29T03:33:16.582Z,22.23
2017-09-29T03:35:42.554Z,20.57
2017-09-29T03:38:09.027Z,20.57
2017-09-29T03:40:35.760Z,22.03
2017-09-29T03:43:02.451Z,21.87
2017-09-29T03:45:28.390Z,23.10
2017-09-29T03:47:54.378Z,21.70
2017-09-29T03:50:22.609Z,23.00
2017-09-29T03:52:51.084Z,22.50
2017-09-29T03:55:17.886Z,21.83
2017-09-29T03:57:46.806Z,20.07
2017-09-29T04:00:12.760Z,21.60
2017-09-29T04:02:38.709Z,19.83
2017-09-29T04:05:08.181Z,20.87
2017-09-29T04:07:34.130Z,21.50
2017-09-29T04:10:00.104Z,21.80
2017-09-29T04:12:30.517Z,23.63
2017-09-29T04:14:56.450Z,24.80
2017-09-29T04:17:23.170Z,27.00
2017-09-29T04:19:49.133Z,27.10
2017-09-29T04:22:15.070Z,24.80
2017-09-29T04:24:41.030Z,27.00
2017-09-29T04:27:06.994Z,25.87
2017-09-29T04:29:32.958Z,24.97
2017-09-29T04:31:58.978Z,24.90
2017-09-29T04:34:24.910Z,26.63
2017-09-29T04:36:50.876Z,24.47
2017-09-29T04:39:16.825Z,22.93
2017-09-29T04:41:42.767Z,24.50
2017-09-29T04:44:08.709Z,24.67
2017-09-29T04:46:34.650Z,24.57
2017-09-29T04:49:00.658Z,24.67
2017-09-29T04:51:27.402Z,23.33
2017-09-29T04:53:54.105Z,21.80
2017-09-29T04:56:20.046Z,23.40
2017-09-29T04:58:45.985Z,24.37
2017-09-29T05:01:15.007Z,25.27
2017-09-29T05:03:41.697Z,22.57
2017-09-29T05:06:07.638Z,23.60
2017-09-29T05:08:33.597Z,21.67
2017-09-29T05:11:00.341Z,23.37
2017-09-29T05:13:27.109Z,22.97
2017-09-29T05:15:53.806Z,21.60
2017-09-29T05:18:19.837Z,22.10
2017-09-29T05:20:45.864Z,21.70
2017-09-29T05:23:11.824Z,21.67
2017-09-29T05:25:38.514Z,21.83
2017-09-29T05:28:04.526Z,23.87
2017-09-29T05:30:30.495Z,21.47
2017-09-29T05:32:56.462Z,22.17
2017-09-29T05:35:27.268Z,23.00
2017-09-29T05:37:53.220Z,21.57
2017-09-29T05:40:20.018Z,22.47
2017-09-29T05:42:45.954Z,22.87
2017-09-29T05:45:11.916Z,24.30
2017-09-29T05:47:38.182Z,24.40
2017-09-29T05:50:04.121Z,23.23
2017-09-29T05:52:30.053Z,22.13
2017-09-29T05:54:56.011Z,20.97
2017-09-29T05:57:21.994Z,22.07
2017-09-29T05:59:47.962Z,21.87
2017-09-29T06:02:13.905Z,24.70
2017-09-29T06:04:39.882Z,23.43
2017-09-29T06:07:05.833Z,23.33
2017-09-29T06:09:31.776Z,25.67
2017-09-29T06:11:57.770Z,24.80
2017-09-29T06:14:23.782Z,26.70
2017-09-29T06:16:50.687Z,32.20
2017-09-29T06:19:16.613Z,28.53
2017-09-29T06:21:42.554Z,28.30
2017-09-29T06:24:08.514Z,29.00
2017-09-29T06:26:35.185Z,26.40
2017-09-29T06:29:01.174Z,25.40
2017-09-29T06:31:27.905Z,25.80
2017-09-29T06:33:56.636Z,22.77
2017-09-29T06:36:22.676Z,23.60
2017-09-29T06:38:48.651Z,21.63
2017-09-29T06:41:14.723Z,22.53
2017-09-29T06:43:44.609Z,21.83
2017-09-29T06:46:12.603Z,21.30
2017-09-29T06:48:59.459Z,21.40
2017-09-29T06:51:30.683Z,22.37
2017-09-29T06:54:01.808Z,22.73
2017-09-29T06:56:31.409Z,22.27
2017-09-29T06:59:06.557Z,23.03
2017-09-29T07:01:38.198Z,23.47
2017-09-29T07:04:11.610Z,22.33
2017-09-29T07:06:37.559Z,24.43
2017-09-29T07:09:28.477Z,25.07
2017-09-29T07:11:54.429Z,25.33
2017-09-29T07:14:20.390Z,25.60
2017-09-29T07:16:46.425Z,24.17
2017-09-29T07:19:12.398Z,28.77
2017-09-29T07:24:37.686Z,25.70
2017-09-29T07:27:04.503Z,31.30
2017-09-29T07:29:34.760Z,28.17
2017-09-29T07:32:02.633Z,29.80
2017-09-29T07:34:28.582Z,28.50
2017-09-29T07:36:54.584Z,31.30
2017-09-29T07:39:20.590Z,28.90
2017-09-29T07:41:46.561Z,28.80
2017-09-29T07:44:12.548Z,28.43
2017-09-29T07:46:42.766Z,28.27
2017-09-29T07:49:15.188Z,30.27
2017-09-29T07:51:41.159Z,29.87
2017-09-29T07:54:07.843Z,28.67
2017-09-29T07:56:33.828Z,31.90
2017-09-29T07:59:00.660Z,31.80
2017-09-29T08:01:26.680Z,29.77
2017-09-29T08:03:55.696Z,30.00
2017-09-29T08:06:32.399Z,29.63
2017-09-29T08:08:58.797Z,28.90
2017-09-29T08:11:24.742Z,30.97
2017-09-29T08:13:51.465Z,31.23
2017-09-29T08:16:17.495Z,32.17
2017-09-29T08:18:43.567Z,30.10
2017-09-29T08:21:10.313Z,31.33
2017-09-29T08:23:36.291Z,30.03
2017-09-29T08:26:13.072Z,31.63
2017-09-29T08:28:39.097Z,32.97
2017-09-29T08:31:16.038Z,31.90
2017-09-29T08:33:48.113Z,31.70
2017-09-29T08:36:14.057Z,30.30
2017-09-29T08:38:43.762Z,30.23
2017-09-29T08:41:10.767Z,30.93
2017-09-29T08:43:41.074Z,31.73
2017-09-29T08:46:13.474Z,29.63
2017-09-29T08:48:40.146Z,33.00
2017-09-29T08:51:20.413Z,33.50
2017-09-29T08:53:54.813Z,33.63
2017-09-29T08:56:20.794Z,31.93
2017-09-29T08:58:46.833Z,32.93
2017-09-29T09:01:12.885Z,32.30
2017-09-29T09:03:39.569Z,31.00
2017-09-29T09:06:05.509Z,30.57
2017-09-29T09:08:31.445Z,30.43
2017-09-29T09:10:57.381Z,30.00
2017-09-29T09:13:26.803Z,29.10
2017-09-29T09:15:57.314Z,29.63
2017-09-29T09:18:23.369Z,29.40
2017-09-29T09:20:50.097Z,27.53
2017-09-29T09:23:16.053Z,28.20
2017-09-29T09:25:46.196Z,26.07
2017-09-29T09:28:12.146Z,26.50
2017-09-29T09:30:39.163Z,25.90
2017-09-29T09:33:05.138Z,28.13
2017-09-29T09:35:31.074Z,27.90
2017-09-29T09:37:57.028Z,28.60
2017-09-29T09:40:23.734Z,27.73
2017-09-29T09:42:51.417Z,29.03
2017-09-29T09:45:17.357Z,28.67
2017-09-29T09:47:43.288Z,27.53
2017-09-29T09:50:09.307Z,28.67
2017-09-29T09:52:35.373Z,28.47
2017-09-29T09:55:02.147Z,28.90
2017-09-29T09:57:28.184Z,27.17
2017-09-29T09:59:54.143Z,27.37
2017-09-29T10:02:20.076Z,25.90
2017-09-29T10:04:46.017Z,28.10
2017-09-29T10:07:12.895Z,31.77
2017-09-29T10:09:38.917Z,27.97
2017-09-29T10:12:04.878Z,24.50
2017-09-29T10:14:34.478Z,19.20
2017-09-29T10:17:02.509Z,17.67
2017-09-29T10:19:35.665Z,18.47
2017-09-29T10:22:07.531Z,17.77
2017-09-29T10:24:33.458Z,13.93
2017-09-29T10:26:59.562Z,12.77
2017-09-29T10:29:25.559Z,10.60
2017-09-29T10:31:59.072Z,10.47
2017-09-29T10:34:25.018Z,11.93
2017-09-29T10:36:51.030Z,10.40
2017-09-29T10:39:16.957Z,10.80
2017-09-29T10:41:49.734Z,10.37
2017-09-29T10:44:15.669Z,14.70
2017-09-29T10:46:41.645Z,13.70
2017-09-29T10:49:07.659Z,10.30
2017-09-29T10:51:36.816Z,11.47
2017-09-29T10:54:13.519Z,9.90
2017-09-29T10:56:45.022Z,8.97
2017-09-29T10:59:12.965Z,8.90
2017-09-29T11:01:45.618Z,9.23
2017-09-29T11:04:13.713Z,9.60
2017-09-29T11:06:42.851Z,10.80
2017-09-29T11:09:11.553Z,9.77
2017-09-29T11:11:39.301Z,8.80
2017-09-29T11:14:05.402Z,8.67
2017-09-29T11:16:42.129Z,8.97
2017-09-29T11:19:09.890Z,10.13
2017-09-29T11:21:36.670Z,9.10
2017-09-29T11:24:02.605Z,9.17
2017-09-29T11:26:28.549Z,7.60
2017-09-29T11:28:56.641Z,8.47
2017-09-29T11:31:22.673Z,9.50
2017-09-29T11:33:49.711Z,7.90
2017-09-29T11:36:15.771Z,8.10
2017-09-29T11:38:41.804Z,8.97
2017-09-29T11:41:10.621Z,8.17
2017-09-29T11:43:37.633Z,8.20
2017-09-29T11:46:09.945Z,7.07
2017-09-29T11:48:36.633Z,8.80
2017-09-29T11:51:02.575Z,6.63
2017-09-29T11:53:30.619Z,8.90
2017-09-29T11:56:00.682Z,8.00
2017-09-29T11:58:26.769Z,8.10
2017-09-29T12:00:53.735Z,6.57
2017-09-29T12:03:23.922Z,6.63
2017-09-29T12:06:03.372Z,5.83
2017-09-29T12:08:38.121Z,7.50
2017-09-29T12:11:04.078Z,6.90
2017-09-29T12:13:30.149Z,4.70
2017-09-29T12:15:57.250Z,5.60
2017-09-29T12:18:27.362Z,6.27
2017-09-29T12:21:00.511Z,8.87
2017-09-29T12:23:31.022Z,7.33
2017-09-29T12:26:05.574Z,6.23
2017-09-29T12:28:37.007Z,6.27
2017-09-29T12:31:21.613Z,7.10
2017-09-29T12:33:53.307Z,7.83
2017-09-29T12:36:20.077Z,8.17
2017-09-29T12:38:53.265Z,7.40
2017-09-29T12:41:28.826Z,8.20
2017-09-29T12:44:05.486Z,9.90
2017-09-29T12:46:33.266Z,9.60
2017-09-29T12:48:59.193Z,8.77
2017-09-29T12:51:27.288Z,9.03
2017-09-29T12:53:54.295Z,10.33
2017-09-29T12:56:26.793Z,8.37
2017-09-29T12:58:56.728Z,7.90
2017-09-29T13:01:29.505Z,8.40
2017-09-29T13:04:17.060Z,8.20
2017-09-29T13:06:51.760Z,7.73
2017-09-29T13:09:26.525Z,8.50
2017-09-29T13:12:01.017Z,7.93
2017-09-29T13:14:40.677Z,7.50
2017-09-29T13:17:07.516Z,7.10
2017-09-29T13:19:37.078Z,7.60
2017-09-29T13:22:16.962Z,6.80
2017-09-29T13:24:46.722Z,7.13
2017-09-29T13:27:15.529Z,7.80
2017-09-29T13:29:43.337Z,6.50
2017-09-29T13:32:10.345Z,5.63
2017-09-29T13:34:45.001Z,6.07
2017-09-29T13:37:16.602Z,6.53
2017-09-29T13:39:42.657Z,5.70
2017-09-29T13:42:12.470Z,4.97
2017-09-29T13:44:51.109Z,6.50
2017-09-29T13:47:19.058Z,4.97
2017-09-29T13:49:45.009Z,5.10
2017-09-29T13:52:11.742Z,3.77
2017-09-29T13:54:42.365Z,3.80
2017-09-29T13:57:15.904Z,4.40
2017-09-29T13:59:50.257Z,3.90
2017-09-29T14:02:24.013Z,3.87
2017-09-29T14:04:54.005Z,4.27
2017-09-29T14:07:30.457Z,3.30
2017-09-29T14:10:01.925Z,5.07
2017-09-29T14:12:34.314Z,4.73
2017-09-29T14:15:04.981Z,4.50
2017-09-29T14:17:41.830Z,4.80
2017-09-29T14:20:09.669Z,3.80
2017-09-29T14:22:36.651Z,3.77
2017-09-29T14:25:04.399Z,3.90
2017-09-29T14:27:30.436Z,4.90
2017-09-29T14:32:49.921Z,4.33
2017-09-29T14:35:21.363Z,4.03
2017-09-29T14:37:47.406Z,3.80
2017-09-29T14:40:38.274Z,4.17
2017-09-29T14:43:11.015Z,3.53
2017-09-29T14:45:38.038Z,3.90
2017-09-29T14:48:11.048Z,4.77
2017-09-29T14:50:40.970Z,4.50
2017-09-29T14:53:20.344Z,4.57
2017-09-29T14:55:54.224Z,4.97
2017-09-29T14:58:26.990Z,4.97
2017-09-29T15:00:57.399Z,6.03
2017-09-29T15:03:30.876Z,4.37
2017-09-29T15:06:07.690Z,5.03
2017-09-29T15:08:39.545Z,4.67
2017-09-29T15:11:09.090Z,3.50
2017-09-29T15:13:35.070Z,4.63
2017-09-29T15:16:14.961Z,3.60
2017-09-29T15:18:40.968Z,5.00
2017-09-29T15:21:18.052Z,3.50
2017-09-29T15:23:45.104Z,2.90
2017-09-29T15:26:16.032Z,4.03
2017-09-29T15:28:58.294Z,4.40
2017-09-29T15:31:32.868Z,3.50
2017-09-29T15:34:00.632Z,4.13
2017-09-29T15:36:37.625Z,3.90
2017-09-29T15:39:04.656Z,4.07
2017-09-29T15:41:34.782Z,5.03
2017-09-29T15:44:02.574Z,5.60
2017-09-29T15:46:28.614Z,4.50
2017-09-29T15:48:58.381Z,5.00
2017-09-29T15:51:48.852Z,4.70
2017-09-29T15:54:23.545Z,5.30
2017-09-29T15:56:56.029Z,4.67
2017-09-29T15:59:27.848Z,4.70
2017-09-29T16:01:58.938Z,4.00
2017-09-29T16:04:35.615Z,5.77
2017-09-29T16:07:03.346Z,4.40
2017-09-29T16:09:32.731Z,3.90
2017-09-29T16:12:13.148Z,5.00
2017-09-29T16:14:41.154Z,4.50
2017-09-29T16:17:17.283Z,5.70
2017-09-29T16:19:50.378Z,4.70
2017-09-29T16:22:20.353Z,5.70
2017-09-29T16:24:52.117Z,4.70
2017-09-29T16:27:30.574Z,4.33
2017-09-29T16:30:00.310Z,4.87
2017-09-29T16:32:26.278Z,4.43
2017-09-29T16:35:00.914Z,4.67
2017-09-29T16:37:30.838Z,5.13
2017-09-29T16:39:56.854Z,5.07
2017-09-29T16:42:22.910Z,5.30
2017-09-29T16:44:55.038Z,5.00
2017-09-29T16:47:34.725Z,4.70
2017-09-29T16:50:00.713Z,4.47
2017-09-29T16:52:38.378Z,4.73
2017-09-29T16:55:18.005Z,4.60
2017-09-29T16:57:45.007Z,6.60
2017-09-29T17:00:14.135Z,5.20
2017-09-29T17:02:57.823Z,4.97
2017-09-29T17:05:29.277Z,5.80
2017-09-29T17:07:56.025Z,5.00
2017-09-29T17:10:24.043Z,6.47
2017-09-29T17:12:50.013Z,4.90
2017-09-29T17:15:23.473Z,4.77
2017-09-29T17:17:50.171Z,4.73
2017-09-29T17:20:23.105Z,5.30
2017-09-29T17:22:52.517Z,5.80
2017-09-29T17:25:29.038Z,5.10
2017-09-29T17:28:05.607Z,5.13
2017-09-29T17:30:31.627Z,5.97
2017-09-29T17:33:04.498Z,6.40
2017-09-29T17:35:32.245Z,8.23
2017-09-29T17:37:58.193Z,8.87
2017-09-29T17:40:28.382Z,6.90
2017-09-29T17:42:54.382Z,5.30
2017-09-29T17:45:25.712Z,5.90
2017-09-29T17:47:53.457Z,6.27
2017-09-29T17:50:19.423Z,6.10
2017-09-29T17:53:04.199Z,5.77
2017-09-29T17:55:45.456Z,4.80
2017-09-29T17:58:18.262Z,5.20
2017-09-29T18:00:59.853Z,4.80
2017-09-29T18:03:26.162Z,5.70
2017-09-29T18:05:54.220Z,5.83
2017-09-29T18:08:31.010Z,5.20
2017-09-29T18:10:57.066Z,4.70
2017-09-29T18:13:24.123Z,5.57
2017-09-29T18:15:53.413Z,5.30
2017-09-29T18:18:31.757Z,6.40
2017-09-29T18:20:57.921Z,5.93
2017-09-29T18:23:24.689Z,6.43
2017-09-29T18:25:51.839Z,7.20
2017-09-29T18:28:22.213Z,6.73
2017-09-29T18:30:49.224Z,6.47
2017-09-29T18:33:27.370Z,6.33
2017-09-29T18:35:54.174Z,6.13
2017-09-29T18:38:21.208Z,6.27
2017-09-29T18:40:50.882Z,5.90
2017-09-29T18:43:23.018Z,6.60
2017-09-29T18:46:02.698Z,8.40
2017-09-29T18:48:36.873Z,8.00
2017-09-29T18:51:25.461Z,7.00
2017-09-29T18:56:47.837Z,7.60
2017-09-29T18:59:20.338Z,8.13
2017-09-29T19:01:46.385Z,7.80
2017-09-29T19:04:12.386Z,8.10
2017-09-29T19:06:41.298Z,7.47
2017-09-29T19:09:11.999Z,6.87
2017-09-29T19:11:45.222Z,7.27
2017-09-29T19:14:11.293Z,6.93
2017-09-29T19:16:48.023Z,7.40
2017-09-29T19:19:17.720Z,7.83
2017-09-29T19:21:52.149Z,7.50
2017-09-29T19:27:36.554Z,8.20
2017-09-29T19:30:03.520Z,8.10
2017-09-29T19:32:47.221Z,9.23
2017-09-29T19:35:28.922Z,13.10
2017-09-29T19:38:05.646Z,12.33
2017-09-29T19:40:43.169Z,11.67
2017-09-29T19:43:30.501Z,12.63
2017-09-29T19:46:07.372Z,11.20
2017-09-29T19:48:50.978Z,10.47
2017-09-29T19:51:20.864Z,11.50
2017-09-29T19:53:55.331Z,12.07
2017-09-29T19:56:21.311Z,11.53
2017-09-29T19:58:51.654Z,11.23
2017-09-29T20:01:18.011Z,9.77
2017-09-29T20:03:44.004Z,9.17
2017-09-29T20:06:12.690Z,10.60
2017-09-29T20:08:39.377Z,8.13
2017-09-29T20:11:05.379Z,8.90
2017-09-29T20:13:35.882Z,8.37
2017-09-29T20:16:01.825Z,7.37
2017-09-29T20:18:28.512Z,7.10
2017-09-29T20:20:54.453Z,8.97
2017-09-29T20:23:21.250Z,7.07
2017-09-29T20:26:02.582Z,7.17
2017-09-29T20:28:44.302Z,8.50
2017-09-29T20:31:30.981Z,8.60
2017-09-29T20:33:57.667Z,10.63
2017-09-29T20:36:28.092Z,10.73
2017-09-29T20:39:05.498Z,12.17
2017-09-29T20:41:36.370Z,11.50
2017-09-29T20:44:09.247Z,11.57
2017-09-29T20:46:48.598Z,11.17
2017-09-29T20:49:25.118Z,11.60
2017-09-29T20:51:52.268Z,10.93
2017-09-29T20:54:18.200Z,11.30
2017-09-29T20:56:57.519Z,11.10
2017-09-29T20:59:44.898Z,11.60
2017-09-29T21:02:11.922Z,11.50
2017-09-29T21:04:37.924Z,11.43
2017-09-29T21:07:13.381Z,12.10
2017-09-29T21:09:43.001Z,12.37
2017-09-29T21:12:30.561Z,12.70
2017-09-29T21:15:01.331Z,14.40
2017-09-29T21:17:38.636Z,14.53
2017-09-29T21:20:05.736Z,15.97
2017-09-29T21:22:38.423Z,15.30
2017-09-29T21:25:08.270Z,17.57
2017-09-29T21:27:36.134Z,18.17
2017-09-29T21:30:14.099Z,21.03
2017-09-29T21:32:40.370Z,18.70
2017-09-29T21:35:33.295Z,19.73
2017-09-29T21:38:08.116Z,19.80
2017-09-29T21:40:38.990Z,21.90
2017-09-29T21:43:11.768Z,24.10
2017-09-29T21:45:42.151Z,25.30
2017-09-29T21:48:13.465Z,24.93
2017-09-29T21:50:50.985Z,24.60
2017-09-29T21:53:23.329Z,24.83
2017-09-29T21:55:55.504Z,24.30
2017-09-29T21:58:25.238Z,21.97
2017-09-29T22:00:57.393Z,22.03
2017-09-29T22:03:30.415Z,22.50
2017-09-29T22:05:57.431Z,19.97
2017-09-29T22:08:28.137Z,23.57
2017-09-29T22:10:57.902Z,25.30
2017-09-29T22:13:30.142Z,22.67
2017-09-29T22:16:12.586Z,22.07
2017-09-29T22:18:38.556Z,20.60
2017-09-29T22:21:25.538Z,21.57
2017-09-29T22:23:58.798Z,19.43
2017-09-29T22:26:26.867Z,20.23
2017-09-29T22:29:03.011Z,23.23
2017-09-29T22:31:29.770Z,26.13
2017-09-29T22:34:00.613Z,27.83
2017-09-29T22:36:35.260Z,25.90
2017-09-29T22:39:12.863Z,25.97
2017-09-29T22:41:44.579Z,27.43
2017-09-29T22:44:22.391Z,27.40
2017-09-29T22:46:52.032Z,27.80
2017-09-29T22:49:22.833Z,29.97
2017-09-29T22:51:48.790Z,28.63
2017-09-29T22:54:14.785Z,28.50
2017-09-29T22:56:48.663Z,30.80
2017-09-29T22:59:27.144Z,31.23
2017-09-29T23:01:55.233Z,34.37
2017-09-29T23:04:27.231Z,33.97
2017-09-29T23:07:04.462Z,35.57
2017-09-29T23:09:30.460Z,32.60
2017-09-29T23:12:01.402Z,33.67
2017-09-29T23:14:38.875Z,33.13
2017-09-29T23:17:05.621Z,32.50
2017-09-29T23:19:43.066Z,33.30
2017-09-29T23:22:11.132Z,34.40
2017-09-29T23:24:47.282Z,33.30
2017-09-29T23:27:23.993Z,32.43
2017-09-29T23:30:01.955Z,34.10
2017-09-29T23:32:39.427Z,31.57
2017-09-29T23:35:05.467Z,31.97
2017-09-29T23:37:32.543Z,32.10
2017-09-29T23:40:00.575Z,36.00
2017-09-29T23:42:39.232Z,34.80
2017-09-29T23:45:09.766Z,34.87
2017-09-29T23:47:37.741Z,36.80
2017-09-29T23:50:03.728Z,34.57
2017-09-29T23:52:33.566Z,37.60
2017-09-29T23:55:00.598Z,35.80
2017-09-29T23:57:27.351Z,37.03
2017-09-29T23:59:57.271Z,35.77
